sensor_id;sensor_type;location;lat;lon;timestamp;P1;durP1;ratioP1;P2;durP2;ratioP2
60867;SDS011;46702;48.370;10.794;2023-04-03T00:01:11;5.43;;;4.93;;
60867;SDS011;46702;48.370;10.794;2023-04-03T00:03:37;3.88;;;3.45;;
60867;SDS011;46702;48.370;10.794;2023-04-03T00:06:03;6.82;;;4.10;;
60867;SDS011;46702;48.370;10.794;2023-04-03T00:10:57;5.90;;;4.43;;
60867;SDS011;46702;48.370;10.794;2023-04-03T00:13:23;3.80;;;3.50;;
60867;SDS011;46702;48.370;10.794;2023-04-03T00:15:50;5.82;;;4.18;;
60867;SDS011;46702;48.370;10.794;2023-04-03T00:18:16;4.50;;;3.80;;
60867;SDS011;46702;48.370;10.794;2023-04-03T00:20:42;4.82;;;3.78;;
60867;SDS011;46702;48.370;10.794;2023-04-03T00:23:08;4.35;;;3.95;;
60867;SDS011;46702;48.370;10.794;2023-04-03T00:25:34;3.97;;;2.97;;
60867;SDS011;46702;48.370;10.794;2023-04-03T00:28:00;3.65;;;3.35;;
60867;SDS011;46702;48.370;10.794;2023-04-03T00:30:25;4.95;;;3.90;;
60867;SDS011;46702;48.370;10.794;2023-04-03T00:32:52;6.28;;;4.07;;
60867;SDS011;46702;48.370;10.794;2023-04-03T00:35:18;4.18;;;3.78;;
60867;SDS011;46702;48.370;10.794;2023-04-03T00:37:45;4.20;;;3.80;;
60867;SDS011;46702;48.370;10.794;2023-04-03T00:40:12;3.35;;;3.05;;
60867;SDS011;46702;48.370;10.794;2023-04-03T00:42:40;3.97;;;3.38;;
60867;SDS011;46702;48.370;10.794;2023-04-03T00:47:58;6.55;;;3.90;;
60867;SDS011;46702;48.370;10.794;2023-04-03T00:50:27;3.20;;;2.90;;
60867;SDS011;46702;48.370;10.794;2023-04-03T00:52:54;3.67;;;3.20;;
60867;SDS011;46702;48.370;10.794;2023-04-03T00:55:21;4.15;;;3.60;;
60867;SDS011;46702;48.370;10.794;2023-04-03T00:57:47;3.72;;;3.00;;
60867;SDS011;46702;48.370;10.794;2023-04-03T01:00:14;4.03;;;2.95;;
60867;SDS011;46702;48.370;10.794;2023-04-03T01:02:44;4.00;;;3.20;;
60867;SDS011;46702;48.370;10.794;2023-04-03T01:05:10;4.60;;;2.88;;
60867;SDS011;46702;48.370;10.794;2023-04-03T01:07:36;3.65;;;2.90;;
60867;SDS011;46702;48.370;10.794;2023-04-03T01:10:04;3.22;;;2.83;;
60867;SDS011;46702;48.370;10.794;2023-04-03T01:12:42;4.18;;;2.83;;
60867;SDS011;46702;48.370;10.794;2023-04-03T01:15:12;3.57;;;2.67;;
60867;SDS011;46702;48.370;10.794;2023-04-03T01:17:44;3.47;;;2.90;;
60867;SDS011;46702;48.370;10.794;2023-04-03T01:20:23;3.03;;;2.80;;
60867;SDS011;46702;48.370;10.794;2023-04-03T01:28:16;3.50;;;2.67;;
60867;SDS011;46702;48.370;10.794;2023-04-03T01:30:47;2.60;;;2.40;;
60867;SDS011;46702;48.370;10.794;2023-04-03T01:33:14;2.85;;;2.55;;
60867;SDS011;46702;48.370;10.794;2023-04-03T01:35:39;3.00;;;2.40;;
60867;SDS011;46702;48.370;10.794;2023-04-03T01:38:05;2.75;;;2.53;;
60867;SDS011;46702;48.370;10.794;2023-04-03T01:40:31;3.22;;;2.80;;
60867;SDS011;46702;48.370;10.794;2023-04-03T01:42:56;3.20;;;2.92;;
60867;SDS011;46702;48.370;10.794;2023-04-03T01:45:22;4.15;;;2.90;;
60867;SDS011;46702;48.370;10.794;2023-04-03T01:47:47;3.33;;;2.67;;
60867;SDS011;46702;48.370;10.794;2023-04-03T01:50:13;3.17;;;2.70;;
60867;SDS011;46702;48.370;10.794;2023-04-03T01:52:39;3.40;;;3.10;;
60867;SDS011;46702;48.370;10.794;2023-04-03T01:55:05;2.60;;;2.40;;
60867;SDS011;46702;48.370;10.794;2023-04-03T01:57:31;4.00;;;2.75;;
60867;SDS011;46702;48.370;10.794;2023-04-03T01:59:56;4.93;;;2.92;;
60867;SDS011;46702;48.370;10.794;2023-04-03T02:02:22;3.60;;;2.60;;
60867;SDS011;46702;48.370;10.794;2023-04-03T02:04:47;3.50;;;3.20;;
60867;SDS011;46702;48.370;10.794;2023-04-03T02:07:13;2.95;;;2.63;;
60867;SDS011;46702;48.370;10.794;2023-04-03T02:09:39;2.97;;;2.67;;
60867;SDS011;46702;48.370;10.794;2023-04-03T02:12:04;2.72;;;2.53;;
60867;SDS011;46702;48.370;10.794;2023-04-03T02:14:30;2.75;;;2.28;;
60867;SDS011;46702;48.370;10.794;2023-04-03T02:16:56;3.42;;;3.08;;
60867;SDS011;46702;48.370;10.794;2023-04-03T02:19:21;2.40;;;2.20;;
60867;SDS011;46702;48.370;10.794;2023-04-03T02:21:47;3.67;;;2.83;;
60867;SDS011;46702;48.370;10.794;2023-04-03T02:24:13;2.85;;;2.47;;
60867;SDS011;46702;48.370;10.794;2023-04-03T02:26:38;3.17;;;2.88;;
60867;SDS011;46702;48.370;10.794;2023-04-03T02:29:04;4.07;;;2.80;;
60867;SDS011;46702;48.370;10.794;2023-04-03T02:31:30;3.85;;;2.75;;
60867;SDS011;46702;48.370;10.794;2023-04-03T02:33:56;2.92;;;2.58;;
60867;SDS011;46702;48.370;10.794;2023-04-03T02:36:22;4.65;;;2.83;;
60867;SDS011;46702;48.370;10.794;2023-04-03T02:38:47;3.88;;;2.60;;
60867;SDS011;46702;48.370;10.794;2023-04-03T02:41:13;3.53;;;3.15;;
60867;SDS011;46702;48.370;10.794;2023-04-03T02:43:39;3.83;;;2.65;;
60867;SDS011;46702;48.370;10.794;2023-04-03T02:46:05;3.05;;;2.75;;
60867;SDS011;46702;48.370;10.794;2023-04-03T02:48:31;4.03;;;3.00;;
60867;SDS011;46702;48.370;10.794;2023-04-03T02:50:57;3.30;;;2.97;;
60867;SDS011;46702;48.370;10.794;2023-04-03T02:53:22;2.72;;;2.33;;
60867;SDS011;46702;48.370;10.794;2023-04-03T02:55:48;4.05;;;3.08;;
60867;SDS011;46702;48.370;10.794;2023-04-03T02:58:14;4.57;;;3.50;;
60867;SDS011;46702;48.370;10.794;2023-04-03T03:00:40;4.50;;;2.72;;
60867;SDS011;46702;48.370;10.794;2023-04-03T03:03:05;3.70;;;2.90;;
60867;SDS011;46702;48.370;10.794;2023-04-03T03:05:31;3.85;;;2.75;;
60867;SDS011;46702;48.370;10.794;2023-04-03T03:07:57;3.72;;;2.70;;
60867;SDS011;46702;48.370;10.794;2023-04-03T03:10:23;3.50;;;2.80;;
60867;SDS011;46702;48.370;10.794;2023-04-03T03:12:48;2.85;;;2.58;;
60867;SDS011;46702;48.370;10.794;2023-04-03T03:15:14;3.33;;;3.03;;
60867;SDS011;46702;48.370;10.794;2023-04-03T03:17:42;2.90;;;2.70;;
60867;SDS011;46702;48.370;10.794;2023-04-03T03:20:08;3.10;;;2.72;;
60867;SDS011;46702;48.370;10.794;2023-04-03T03:22:34;3.17;;;2.88;;
60867;SDS011;46702;48.370;10.794;2023-04-03T03:25:01;3.38;;;2.97;;
60867;SDS011;46702;48.370;10.794;2023-04-03T03:27:27;3.20;;;2.90;;
60867;SDS011;46702;48.370;10.794;2023-04-03T03:29:53;3.75;;;3.00;;
60867;SDS011;46702;48.370;10.794;2023-04-03T03:32:18;3.25;;;2.88;;
60867;SDS011;46702;48.370;10.794;2023-04-03T03:34:44;5.13;;;3.20;;
60867;SDS011;46702;48.370;10.794;2023-04-03T03:37:10;4.03;;;3.30;;
60867;SDS011;46702;48.370;10.794;2023-04-03T03:39:35;4.25;;;3.30;;
60867;SDS011;46702;48.370;10.794;2023-04-03T03:42:01;4.68;;;3.15;;
60867;SDS011;46702;48.370;10.794;2023-04-03T03:44:27;3.55;;;3.25;;
60867;SDS011;46702;48.370;10.794;2023-04-03T03:46:54;5.03;;;3.13;;
60867;SDS011;46702;48.370;10.794;2023-04-03T03:49:20;3.42;;;3.03;;
60867;SDS011;46702;48.370;10.794;2023-04-03T03:51:46;3.55;;;3.08;;
60867;SDS011;46702;48.370;10.794;2023-04-03T03:54:12;4.25;;;3.33;;
60867;SDS011;46702;48.370;10.794;2023-04-03T03:56:38;5.00;;;3.50;;
60867;SDS011;46702;48.370;10.794;2023-04-03T03:59:04;4.22;;;3.38;;
60867;SDS011;46702;48.370;10.794;2023-04-03T04:01:30;3.17;;;2.85;;
60867;SDS011;46702;48.370;10.794;2023-04-03T04:03:56;4.70;;;3.13;;
60867;SDS011;46702;48.370;10.794;2023-04-03T04:06:22;3.95;;;3.60;;
60867;SDS011;46702;48.370;10.794;2023-04-03T04:08:48;3.85;;;3.15;;
60867;SDS011;46702;48.370;10.794;2023-04-03T04:11:13;3.58;;;3.28;;
60867;SDS011;46702;48.370;10.794;2023-04-03T04:13:39;5.35;;;3.22;;
60867;SDS011;46702;48.370;10.794;2023-04-03T04:16:05;4.72;;;3.22;;
60867;SDS011;46702;48.370;10.794;2023-04-03T04:18:31;5.38;;;3.75;;
60867;SDS011;46702;48.370;10.794;2023-04-03T04:20:57;3.78;;;3.08;;
60867;SDS011;46702;48.370;10.794;2023-04-03T04:23:22;3.83;;;3.40;;
60867;SDS011;46702;48.370;10.794;2023-04-03T04:25:48;3.35;;;2.83;;
60867;SDS011;46702;48.370;10.794;2023-04-03T04:28:14;4.13;;;3.30;;
60867;SDS011;46702;48.370;10.794;2023-04-03T04:30:41;4.40;;;3.25;;
60867;SDS011;46702;48.370;10.794;2023-04-03T04:33:06;3.30;;;3.00;;
60867;SDS011;46702;48.370;10.794;2023-04-03T04:35:32;3.28;;;2.83;;
60867;SDS011;46702;48.370;10.794;2023-04-03T04:37:58;3.45;;;3.15;;
60867;SDS011;46702;48.370;10.794;2023-04-03T04:40:24;4.00;;;3.17;;
60867;SDS011;46702;48.370;10.794;2023-04-03T04:42:50;3.40;;;3.00;;
60867;SDS011;46702;48.370;10.794;2023-04-03T04:45:16;5.07;;;3.78;;
60867;SDS011;46702;48.370;10.794;2023-04-03T04:47:41;4.07;;;3.20;;
60867;SDS011;46702;48.370;10.794;2023-04-03T04:50:07;3.75;;;3.22;;
60867;SDS011;46702;48.370;10.794;2023-04-03T04:52:33;5.03;;;3.53;;
60867;SDS011;46702;48.370;10.794;2023-04-03T04:54:59;6.45;;;3.60;;
60867;SDS011;46702;48.370;10.794;2023-04-03T04:57:25;4.07;;;3.42;;
60867;SDS011;46702;48.370;10.794;2023-04-03T04:59:51;3.83;;;3.53;;
60867;SDS011;46702;48.370;10.794;2023-04-03T05:02:16;5.30;;;3.50;;
60867;SDS011;46702;48.370;10.794;2023-04-03T05:04:42;5.10;;;3.45;;
60867;SDS011;46702;48.370;10.794;2023-04-03T05:07:08;6.55;;;3.90;;
60867;SDS011;46702;48.370;10.794;2023-04-03T05:09:34;3.78;;;3.03;;
60867;SDS011;46702;48.370;10.794;2023-04-03T05:12:00;5.35;;;2.92;;
60867;SDS011;46702;48.370;10.794;2023-04-03T05:14:25;6.50;;;3.40;;
60867;SDS011;46702;48.370;10.794;2023-04-03T05:16:51;3.85;;;2.90;;
60867;SDS011;46702;48.370;10.794;2023-04-03T05:19:17;7.32;;;3.80;;
60867;SDS011;46702;48.370;10.794;2023-04-03T05:21:43;5.55;;;3.30;;
60867;SDS011;46702;48.370;10.794;2023-04-03T05:24:09;5.72;;;3.50;;
60867;SDS011;46702;48.370;10.794;2023-04-03T05:26:34;3.45;;;3.15;;
60867;SDS011;46702;48.370;10.794;2023-04-03T05:29:00;3.65;;;3.30;;
60867;SDS011;46702;48.370;10.794;2023-04-03T05:31:26;4.70;;;3.28;;
60867;SDS011;46702;48.370;10.794;2023-04-03T05:33:54;3.58;;;3.28;;
60867;SDS011;46702;48.370;10.794;2023-04-03T05:36:20;6.32;;;3.47;;
60867;SDS011;46702;48.370;10.794;2023-04-03T05:38:46;4.20;;;3.80;;
60867;SDS011;46702;48.370;10.794;2023-04-03T05:41:12;4.57;;;3.47;;
60867;SDS011;46702;48.370;10.794;2023-04-03T05:43:39;6.68;;;3.40;;
60867;SDS011;46702;48.370;10.794;2023-04-03T05:46:14;3.22;;;2.90;;
60867;SDS011;46702;48.370;10.794;2023-04-03T05:48:42;4.10;;;3.30;;
60867;SDS011;46702;48.370;10.794;2023-04-03T05:51:09;3.90;;;3.50;;
60867;SDS011;46702;48.370;10.794;2023-04-03T05:53:41;4.15;;;3.38;;
60867;SDS011;46702;48.370;10.794;2023-04-03T05:56:08;4.80;;;3.33;;
60867;SDS011;46702;48.370;10.794;2023-04-03T05:58:33;4.18;;;3.30;;
60867;SDS011;46702;48.370;10.794;2023-04-03T06:00:59;5.50;;;3.65;;
60867;SDS011;46702;48.370;10.794;2023-04-03T06:03:24;5.85;;;4.03;;
60867;SDS011;46702;48.370;10.794;2023-04-03T06:05:51;3.72;;;3.35;;
60867;SDS011;46702;48.370;10.794;2023-04-03T06:08:16;6.25;;;4.05;;
60867;SDS011;46702;48.370;10.794;2023-04-03T06:10:42;7.22;;;4.00;;
60867;SDS011;46702;48.370;10.794;2023-04-03T06:13:08;4.28;;;3.22;;
60867;SDS011;46702;48.370;10.794;2023-04-03T06:15:33;6.55;;;4.38;;
60867;SDS011;46702;48.370;10.794;2023-04-03T06:17:59;6.38;;;4.20;;
60867;SDS011;46702;48.370;10.794;2023-04-03T06:20:25;7.05;;;4.28;;
60867;SDS011;46702;48.370;10.794;2023-04-03T06:22:50;4.90;;;3.88;;
60867;SDS011;46702;48.370;10.794;2023-04-03T06:25:16;5.32;;;3.75;;
60867;SDS011;46702;48.370;10.794;2023-04-03T06:27:44;5.47;;;3.90;;
60867;SDS011;46702;48.370;10.794;2023-04-03T06:30:10;3.97;;;3.60;;
60867;SDS011;46702;48.370;10.794;2023-04-03T06:32:36;5.25;;;4.00;;
60867;SDS011;46702;48.370;10.794;2023-04-03T06:35:02;7.53;;;4.57;;
60867;SDS011;46702;48.370;10.794;2023-04-03T06:37:29;5.18;;;4.25;;
60867;SDS011;46702;48.370;10.794;2023-04-03T06:39:55;5.03;;;3.75;;
60867;SDS011;46702;48.370;10.794;2023-04-03T06:42:21;5.28;;;4.30;;
60867;SDS011;46702;48.370;10.794;2023-04-03T06:44:47;6.68;;;3.90;;
60867;SDS011;46702;48.370;10.794;2023-04-03T06:47:13;5.35;;;4.03;;
60867;SDS011;46702;48.370;10.794;2023-04-03T06:49:40;9.13;;;4.28;;
60867;SDS011;46702;48.370;10.794;2023-04-03T06:52:06;5.15;;;4.18;;
60867;SDS011;46702;48.370;10.794;2023-04-03T06:54:32;6.45;;;4.80;;
60867;SDS011;46702;48.370;10.794;2023-04-03T06:56:58;6.20;;;4.60;;
60867;SDS011;46702;48.370;10.794;2023-04-03T06:59:24;6.05;;;4.10;;
60867;SDS011;46702;48.370;10.794;2023-04-03T07:01:51;4.55;;;4.03;;
60867;SDS011;46702;48.370;10.794;2023-04-03T07:04:16;4.97;;;4.47;;
60867;SDS011;46702;48.370;10.794;2023-04-03T07:06:44;6.32;;;4.88;;
60867;SDS011;46702;48.370;10.794;2023-04-03T07:09:10;5.00;;;4.00;;
60867;SDS011;46702;48.370;10.794;2023-04-03T07:11:35;6.82;;;4.00;;
60867;SDS011;46702;48.370;10.794;2023-04-03T07:14:01;5.13;;;4.43;;
60867;SDS011;46702;48.370;10.794;2023-04-03T07:16:27;6.57;;;4.78;;
60867;SDS011;46702;48.370;10.794;2023-04-03T07:18:55;5.43;;;4.07;;
60867;SDS011;46702;48.370;10.794;2023-04-03T07:21:21;5.05;;;3.97;;
60867;SDS011;46702;48.370;10.794;2023-04-03T07:23:47;5.50;;;4.10;;
60867;SDS011;46702;48.370;10.794;2023-04-03T07:26:12;6.32;;;4.30;;
60867;SDS011;46702;48.370;10.794;2023-04-03T07:28:38;5.70;;;4.40;;
60867;SDS011;46702;48.370;10.794;2023-04-03T07:31:07;5.05;;;3.80;;
60867;SDS011;46702;48.370;10.794;2023-04-03T07:33:36;4.78;;;3.88;;
60867;SDS011;46702;48.370;10.794;2023-04-03T07:36:03;5.60;;;4.35;;
60867;SDS011;46702;48.370;10.794;2023-04-03T07:38:29;5.82;;;4.15;;
60867;SDS011;46702;48.370;10.794;2023-04-03T07:40:55;5.70;;;4.13;;
60867;SDS011;46702;48.370;10.794;2023-04-03T07:43:21;6.10;;;4.03;;
60867;SDS011;46702;48.370;10.794;2023-04-03T07:45:48;5.65;;;4.32;;
60867;SDS011;46702;48.370;10.794;2023-04-03T07:48:20;4.43;;;3.97;;
60867;SDS011;46702;48.370;10.794;2023-04-03T07:50:48;5.88;;;4.43;;
60867;SDS011;46702;48.370;10.794;2023-04-03T07:53:13;7.22;;;5.47;;
60867;SDS011;46702;48.370;10.794;2023-04-03T07:55:40;5.25;;;4.75;;
60867;SDS011;46702;48.370;10.794;2023-04-03T07:58:11;6.18;;;4.85;;
60867;SDS011;46702;48.370;10.794;2023-04-03T08:00:39;6.55;;;5.07;;
60867;SDS011;46702;48.370;10.794;2023-04-03T08:03:06;6.43;;;4.90;;
60867;SDS011;46702;48.370;10.794;2023-04-03T08:05:37;4.18;;;3.78;;
60867;SDS011;46702;48.370;10.794;2023-04-03T08:08:06;5.82;;;4.63;;
60867;SDS011;46702;48.370;10.794;2023-04-03T08:10:32;5.50;;;4.78;;
60867;SDS011;46702;48.370;10.794;2023-04-03T08:12:59;5.78;;;4.78;;
60867;SDS011;46702;48.370;10.794;2023-04-03T08:15:25;5.82;;;4.30;;
60867;SDS011;46702;48.370;10.794;2023-04-03T08:17:51;8.00;;;4.20;;
60867;SDS011;46702;48.370;10.794;2023-04-03T08:20:17;6.82;;;4.47;;
60867;SDS011;46702;48.370;10.794;2023-04-03T08:22:43;5.35;;;4.85;;
60867;SDS011;46702;48.370;10.794;2023-04-03T08:25:08;6.45;;;4.50;;
60867;SDS011;46702;48.370;10.794;2023-04-03T08:27:34;5.70;;;4.55;;
60867;SDS011;46702;48.370;10.794;2023-04-03T08:30:00;4.68;;;4.28;;
60867;SDS011;46702;48.370;10.794;2023-04-03T08:32:26;5.35;;;4.20;;
60867;SDS011;46702;48.370;10.794;2023-04-03T08:34:52;4.55;;;4.10;;
60867;SDS011;46702;48.370;10.794;2023-04-03T08:37:18;4.75;;;4.22;;
60867;SDS011;46702;48.370;10.794;2023-04-03T08:39:44;7.05;;;4.35;;
60867;SDS011;46702;48.370;10.794;2023-04-03T08:42:15;7.13;;;4.70;;
60867;SDS011;46702;48.370;10.794;2023-04-03T08:48:15;4.38;;;3.97;;
60867;SDS011;46702;48.370;10.794;2023-04-03T08:50:55;4.18;;;3.78;;
60867;SDS011;46702;48.370;10.794;2023-04-03T08:53:28;6.00;;;4.38;;
60867;SDS011;46702;48.370;10.794;2023-04-03T08:55:57;8.90;;;4.68;;
60867;SDS011;46702;48.370;10.794;2023-04-03T08:58:29;5.00;;;4.50;;
60867;SDS011;46702;48.370;10.794;2023-04-03T09:01:05;4.82;;;4.28;;
60867;SDS011;46702;48.370;10.794;2023-04-03T09:04:10;4.90;;;4.40;;
60867;SDS011;46702;48.370;10.794;2023-04-03T09:06:41;4.97;;;4.43;;
60867;SDS011;46702;48.370;10.794;2023-04-03T09:14:54;6.85;;;4.25;;
60867;SDS011;46702;48.370;10.794;2023-04-03T09:17:49;5.22;;;4.47;;
60867;SDS011;46702;48.370;10.794;2023-04-03T09:26:04;4.60;;;3.97;;
60867;SDS011;46702;48.370;10.794;2023-04-03T09:28:37;4.03;;;3.20;;
60867;SDS011;46702;48.370;10.794;2023-04-03T09:31:23;5.03;;;4.10;;
60867;SDS011;46702;48.370;10.794;2023-04-03T09:33:53;5.72;;;4.63;;
60867;SDS011;46702;48.370;10.794;2023-04-03T09:39:31;4.40;;;4.00;;
60867;SDS011;46702;48.370;10.794;2023-04-03T09:44:25;5.40;;;4.35;;
60867;SDS011;46702;48.370;10.794;2023-04-03T09:46:52;4.60;;;4.00;;
60867;SDS011;46702;48.370;10.794;2023-04-03T09:49:18;4.80;;;4.32;;
60867;SDS011;46702;48.370;10.794;2023-04-03T09:51:44;7.43;;;4.47;;
60867;SDS011;46702;48.370;10.794;2023-04-03T09:56:55;4.72;;;4.05;;
60867;SDS011;46702;48.370;10.794;2023-04-03T09:59:25;8.23;;;4.75;;
60867;SDS011;46702;48.370;10.794;2023-04-03T10:01:58;4.57;;;4.20;;
60867;SDS011;46702;48.370;10.794;2023-04-03T10:04:27;5.70;;;4.22;;
60867;SDS011;46702;48.370;10.794;2023-04-03T10:07:04;5.93;;;4.68;;
60867;SDS011;46702;48.370;10.794;2023-04-03T10:09:58;5.20;;;4.25;;
60867;SDS011;46702;48.370;10.794;2023-04-03T10:12:26;5.68;;;4.10;;
60867;SDS011;46702;48.370;10.794;2023-04-03T10:34:21;5.03;;;3.88;;
60867;SDS011;46702;48.370;10.794;2023-04-03T10:39:54;4.03;;;3.67;;
60867;SDS011;46702;48.370;10.794;2023-04-03T10:42:28;5.28;;;4.45;;
60867;SDS011;46702;48.370;10.794;2023-04-03T10:45:08;4.75;;;4.30;;
60867;SDS011;46702;48.370;10.794;2023-04-03T10:47:44;5.00;;;4.47;;
60867;SDS011;46702;48.370;10.794;2023-04-03T10:53:08;4.00;;;3.70;;
60867;SDS011;46702;48.370;10.794;2023-04-03T10:58:30;6.80;;;4.45;;
60867;SDS011;46702;48.370;10.794;2023-04-03T11:01:01;4.13;;;3.72;;
60867;SDS011;46702;48.370;10.794;2023-04-03T11:03:36;4.25;;;3.72;;
60867;SDS011;46702;48.370;10.794;2023-04-03T11:06:07;4.68;;;4.22;;
60867;SDS011;46702;48.370;10.794;2023-04-03T11:11:24;3.92;;;3.53;;
60867;SDS011;46702;48.370;10.794;2023-04-03T11:16:45;6.05;;;4.13;;
60867;SDS011;46702;48.370;10.794;2023-04-03T11:19:24;4.20;;;3.80;;
60867;SDS011;46702;48.370;10.794;2023-04-03T11:22:25;4.60;;;4.20;;
60867;SDS011;46702;48.370;10.794;2023-04-03T11:24:56;5.95;;;4.43;;
60867;SDS011;46702;48.370;10.794;2023-04-03T11:30:12;4.35;;;3.92;;
60867;SDS011;46702;48.370;10.794;2023-04-03T11:36:05;4.35;;;3.92;;
60867;SDS011;46702;48.370;10.794;2023-04-03T11:38:44;4.47;;;4.07;;
60867;SDS011;46702;48.370;10.794;2023-04-03T11:41:12;4.23;;;3.60;;
60867;SDS011;46702;48.370;10.794;2023-04-03T11:43:40;4.10;;;3.70;;
60867;SDS011;46702;48.370;10.794;2023-04-03T11:51:37;3.70;;;3.40;;
60867;SDS011;46702;48.370;10.794;2023-04-03T11:53:51;5.47;;;3.95;;
60867;SDS011;46702;48.370;10.794;2023-04-03T12:01:47;3.78;;;3.38;;
60867;SDS011;46702;48.370;10.794;2023-04-03T12:04:17;4.15;;;3.75;;
60867;SDS011;46702;48.370;10.794;2023-04-03T12:15:11;7.88;;;3.85;;
60867;SDS011;46702;48.370;10.794;2023-04-03T12:18:25;3.15;;;2.75;;
60867;SDS011;46702;48.370;10.794;2023-04-03T12:21:04;3.65;;;3.25;;
60867;SDS011;46702;48.370;10.794;2023-04-03T12:23:32;4.53;;;3.63;;
60867;SDS011;46702;48.370;10.794;2023-04-03T12:26:04;4.15;;;2.97;;
60867;SDS011;46702;48.370;10.794;2023-04-03T12:28:40;5.85;;;3.50;;
60867;SDS011;46702;48.370;10.794;2023-04-03T12:31:07;3.97;;;3.25;;
60867;SDS011;46702;48.370;10.794;2023-04-03T12:36:46;3.95;;;3.13;;
60867;SDS011;46702;48.370;10.794;2023-04-03T12:40:00;3.55;;;3.17;;
60867;SDS011;46702;48.370;10.794;2023-04-03T12:45:19;4.07;;;2.70;;
60867;SDS011;46702;48.370;10.794;2023-04-03T12:47:48;4.63;;;3.00;;
60867;SDS011;46702;48.370;10.794;2023-04-03T12:50:17;3.83;;;3.13;;
60867;SDS011;46702;48.370;10.794;2023-04-03T12:55:47;3.13;;;2.40;;
60867;SDS011;46702;48.370;10.794;2023-04-03T13:01:24;2.75;;;2.55;;
60867;SDS011;46702;48.370;10.794;2023-04-03T13:03:51;4.15;;;2.60;;
60867;SDS011;46702;48.370;10.794;2023-04-03T13:06:31;2.70;;;2.50;;
60867;SDS011;46702;48.370;10.794;2023-04-03T13:09:02;3.53;;;2.78;;
60867;SDS011;46702;48.370;10.794;2023-04-03T13:11:38;3.42;;;2.53;;
60867;SDS011;46702;48.370;10.794;2023-04-03T13:14:17;2.57;;;2.37;;
60867;SDS011;46702;48.370;10.794;2023-04-03T13:19:30;2.45;;;2.17;;
60867;SDS011;46702;48.370;10.794;2023-04-03T13:22:01;2.55;;;2.30;;
60867;SDS011;46702;48.370;10.794;2023-04-03T13:24:30;2.85;;;2.42;;
60867;SDS011;46702;48.370;10.794;2023-04-03T13:26:59;2.40;;;2.20;;
60867;SDS011;46702;48.370;10.794;2023-04-03T13:29:27;2.58;;;2.20;;
60867;SDS011;46702;48.370;10.794;2023-04-03T13:31:55;3.58;;;2.38;;
60867;SDS011;46702;48.370;10.794;2023-04-03T13:34:23;2.35;;;2.15;;
60867;SDS011;46702;48.370;10.794;2023-04-03T13:41:53;3.42;;;2.38;;
60867;SDS011;46702;48.370;10.794;2023-04-03T13:46:46;3.28;;;2.55;;
60867;SDS011;46702;48.370;10.794;2023-04-03T13:52:17;2.60;;;2.20;;
60867;SDS011;46702;48.370;10.794;2023-04-03T13:54:53;3.13;;;2.35;;
60867;SDS011;46702;48.370;10.794;2023-04-03T13:57:21;2.30;;;2.10;;
60867;SDS011;46702;48.370;10.794;2023-04-03T13:59:47;2.15;;;1.95;;
60867;SDS011;46702;48.370;10.794;2023-04-03T14:02:19;2.78;;;2.05;;
60867;SDS011;46702;48.370;10.794;2023-04-03T14:04:49;4.72;;;2.75;;
60867;SDS011;46702;48.370;10.794;2023-04-03T14:07:23;5.50;;;2.55;;
60867;SDS011;46702;48.370;10.794;2023-04-03T14:09:49;3.13;;;2.40;;
60867;SDS011;46702;48.370;10.794;2023-04-03T14:12:16;2.78;;;2.30;;
60867;SDS011;46702;48.370;10.794;2023-04-03T14:14:50;2.33;;;2.10;;
60867;SDS011;46702;48.370;10.794;2023-04-03T14:17:17;2.72;;;2.28;;
60867;SDS011;46702;48.370;10.794;2023-04-03T14:19:45;2.72;;;2.05;;
60867;SDS011;46702;48.370;10.794;2023-04-03T14:22:19;2.50;;;2.30;;
60867;SDS011;46702;48.370;10.794;2023-04-03T14:24:47;5.07;;;2.20;;
60867;SDS011;46702;48.370;10.794;2023-04-03T14:27:18;2.75;;;2.28;;
60867;SDS011;46702;48.370;10.794;2023-04-03T14:29:44;4.88;;;2.10;;
60867;SDS011;46702;48.370;10.794;2023-04-03T14:32:14;2.00;;;1.60;;
60867;SDS011;46702;48.370;10.794;2023-04-03T14:34:42;2.42;;;1.70;;
60867;SDS011;46702;48.370;10.794;2023-04-03T14:37:09;2.53;;;2.30;;
60867;SDS011;46702;48.370;10.794;2023-04-03T14:39:37;3.53;;;1.83;;
60867;SDS011;46702;48.370;10.794;2023-04-03T14:42:03;1.80;;;1.70;;
60867;SDS011;46702;48.370;10.794;2023-04-03T14:44:29;3.20;;;1.67;;
60867;SDS011;46702;48.370;10.794;2023-04-03T14:46:54;1.58;;;1.52;;
60867;SDS011;46702;48.370;10.794;2023-04-03T14:49:22;2.58;;;1.80;;
60867;SDS011;46702;48.370;10.794;2023-04-03T14:51:50;1.83;;;1.67;;
60867;SDS011;46702;48.370;10.794;2023-04-03T14:54:17;2.25;;;2.05;;
60867;SDS011;46702;48.370;10.794;2023-04-03T14:56:46;3.03;;;1.90;;
60867;SDS011;46702;48.370;10.794;2023-04-03T14:59:12;3.08;;;2.22;;
60867;SDS011;46702;48.370;10.794;2023-04-03T15:01:40;3.72;;;1.80;;
60867;SDS011;46702;48.370;10.794;2023-04-03T15:04:12;2.20;;;2.00;;
60867;SDS011;46702;48.370;10.794;2023-04-03T15:06:42;2.20;;;1.60;;
60867;SDS011;46702;48.370;10.794;2023-04-03T15:11:50;3.05;;;1.80;;
60867;SDS011;46702;48.370;10.794;2023-04-03T15:14:16;2.53;;;1.60;;
60867;SDS011;46702;48.370;10.794;2023-04-03T15:16:42;3.53;;;1.90;;
60867;SDS011;46702;48.370;10.794;2023-04-03T15:19:09;1.98;;;1.80;;
60867;SDS011;46702;48.370;10.794;2023-04-03T15:21:35;2.90;;;1.90;;
60867;SDS011;46702;48.370;10.794;2023-04-03T15:24:01;3.90;;;1.65;;
60867;SDS011;46702;48.370;10.794;2023-04-03T15:26:27;1.75;;;1.58;;
60867;SDS011;46702;48.370;10.794;2023-04-03T15:28:52;2.33;;;1.90;;
60867;SDS011;46702;48.370;10.794;2023-04-03T15:31:18;3.17;;;1.70;;
60867;SDS011;46702;48.370;10.794;2023-04-03T15:33:44;2.85;;;2.03;;
60867;SDS011;46702;48.370;10.794;2023-04-03T15:36:09;2.90;;;2.63;;
60867;SDS011;46702;48.370;10.794;2023-04-03T15:38:35;1.90;;;1.60;;
60867;SDS011;46702;48.370;10.794;2023-04-03T15:41:03;2.03;;;1.73;;
60867;SDS011;46702;48.370;10.794;2023-04-03T15:43:29;3.85;;;1.88;;
60867;SDS011;46702;48.370;10.794;2023-04-03T15:45:56;2.25;;;1.50;;
60867;SDS011;46702;48.370;10.794;2023-04-03T15:48:23;3.85;;;1.70;;
60867;SDS011;46702;48.370;10.794;2023-04-03T15:50:49;1.73;;;1.25;;
60867;SDS011;46702;48.370;10.794;2023-04-03T15:53:15;1.80;;;1.70;;
60867;SDS011;46702;48.370;10.794;2023-04-03T15:55:40;2.58;;;1.70;;
60867;SDS011;46702;48.370;10.794;2023-04-03T15:58:06;2.33;;;1.40;;
60867;SDS011;46702;48.370;10.794;2023-04-03T16:00:32;2.22;;;1.48;;
60867;SDS011;46702;48.370;10.794;2023-04-03T16:03:05;2.08;;;1.50;;
60867;SDS011;46702;48.370;10.794;2023-04-03T16:05:36;1.75;;;1.65;;
60867;SDS011;46702;48.370;10.794;2023-04-03T16:08:03;3.33;;;1.88;;
60867;SDS011;46702;48.370;10.794;2023-04-03T16:10:29;1.75;;;1.65;;
60867;SDS011;46702;48.370;10.794;2023-04-03T16:12:54;2.55;;;1.50;;
60867;SDS011;46702;48.370;10.794;2023-04-03T16:15:20;1.98;;;1.38;;
60867;SDS011;46702;48.370;10.794;2023-04-03T16:17:46;1.60;;;1.50;;
60867;SDS011;46702;48.370;10.794;2023-04-03T16:20:13;2.35;;;1.45;;
60867;SDS011;46702;48.370;10.794;2023-04-03T16:22:40;2.38;;;1.50;;
60867;SDS011;46702;48.370;10.794;2023-04-03T16:25:07;1.60;;;1.50;;
60867;SDS011;46702;48.370;10.794;2023-04-03T16:27:34;2.03;;;1.58;;
60867;SDS011;46702;48.370;10.794;2023-04-03T16:30:00;1.77;;;1.67;;
60867;SDS011;46702;48.370;10.794;2023-04-03T16:32:29;2.05;;;1.63;;
60867;SDS011;46702;48.370;10.794;2023-04-03T16:34:56;3.10;;;1.70;;
60867;SDS011;46702;48.370;10.794;2023-04-03T16:37:29;1.73;;;1.63;;
60867;SDS011;46702;48.370;10.794;2023-04-03T16:39:54;2.53;;;1.65;;